Garfield, Kentucky
Current Conditions -  °F | °C
As of 2:16 PM on Thursday 29 Jan 2015 (Local Time) from KFTK Reporting Station
Overcast Overcast  
Wind Chill: 35°   Ceiling: 2200
Heat Index: 43°   Visibility: 10mi
Dew Point: 34°   Wind: 18mph
Humidity: 70%   Direction: 260°W
Pressure: 30.02"   Gusts: 26mph
Location:  37.78°N, 86.36°W
Report Text: KFTK 292016Z AUTO 26016G23KT 10SM OVC022 06/01 A3002 RMK AO2 PRESRR
Loading
Personal Weather Stations






























Interactive Weather Map New forecast layout! Learn more

10-Day Weather Forecast

Advertisements
Track Severe Weather on mobile